Time,TemperatureF,DewpointF,PressureIn,WindDirection,WindDirectionDegrees,WindSpeedMPH,WindSpeedGustMPH,Humidity,HourlyPrecipIn,Conditions,Clouds,dailyrainin,SoftwareType,DateUTC
2013-05-29 00:00:00,74.2,69.7,30.16,West,263,0.0,4.0,86,0.00,,,0.00,Wunderground v.1.15,2013-05-29 04:00:00,
2013-05-29 00:05:00,74.1,70.0,30.16,West,262,0.0,4.0,87,0.00,,,0.00,Wunderground v.1.15,2013-05-29 04:05:00,
2013-05-29 00:10:00,74.0,69.9,30.16,West,262,0.0,4.0,87,0.00,,,0.00,Wunderground v.1.15,2013-05-29 04:10:00,
2013-05-29 00:15:00,73.9,69.8,30.15,WSW,251,0.0,4.0,87,0.00,,,0.00,Wunderground v.1.15,2013-05-29 04:15:00,
2013-05-29 00:25:00,73.7,69.6,30.15,WSW,250,0.0,4.0,87,0.00,,,0.00,Wunderground v.1.15,2013-05-29 04:25:00,
2013-05-29 00:35:00,73.5,69.4,30.15,WSW,251,0.0,4.0,87,0.00,,,0.00,Wunderground v.1.15,2013-05-29 04:35:00,
2013-05-29 00:45:00,73.4,69.6,30.15,WSW,251,0.0,4.0,88,0.00,,,0.00,Wunderground v.1.15,2013-05-29 04:45:00,
2013-05-29 00:50:00,73.4,69.6,30.15,West,268,0.0,4.0,88,0.00,,,0.00,Wunderground v.1.15,2013-05-29 04:50:00,
2013-05-29 00:55:00,73.3,69.5,30.15,West,268,0.0,4.0,88,0.00,,,0.00,Wunderground v.1.15,2013-05-29 04:55:00,
2013-05-29 01:00:00,73.2,69.4,30.15,West,264,0.0,4.0,88,0.00,,,0.00,Wunderground v.1.15,2013-05-29 05:00:00,
2013-05-29 01:05:00,73.1,69.3,30.14,West,261,0.0,4.0,88,0.00,,,0.00,Wunderground v.1.15,2013-05-29 05:05:00,
2013-05-29 01:10:00,73.1,69.7,30.15,West,263,0.0,4.0,89,0.00,,,0.00,Wunderground v.1.15,2013-05-29 05:10:00,
2013-05-29 01:15:00,73.0,69.6,30.14,West,263,0.0,4.0,89,0.00,,,0.00,Wunderground v.1.15,2013-05-29 05:15:00,
2013-05-29 01:20:00,73.0,69.6,30.14,West,263,0.0,4.0,89,0.00,,,0.00,Wunderground v.1.15,2013-05-29 05:20:00,
2013-05-29 01:30:00,72.9,69.5,30.14,West,263,0.0,4.0,89,0.00,,,0.00,Wunderground v.1.15,2013-05-29 05:30:00,
2013-05-29 01:35:00,72.8,69.4,30.14,West,263,0.0,4.0,89,0.00,,,0.00,Wunderground v.1.15,2013-05-29 05:35:00,
2013-05-29 01:40:00,72.7,69.3,30.13,West,263,0.0,4.0,89,0.00,,,0.00,Wunderground v.1.15,2013-05-29 05:40:00,
2013-05-29 01:45:00,72.6,69.2,30.13,West,263,0.0,4.0,89,0.00,,,0.00,Wunderground v.1.15,2013-05-29 05:45:00,
2013-05-29 01:50:00,72.6,69.5,30.13,West,263,0.0,4.0,90,0.00,,,0.00,Wunderground v.1.15,2013-05-29 05:50:00,
2013-05-29 01:55:00,72.5,69.1,30.13,West,263,0.0,4.0,89,0.00,,,0.00,Wunderground v.1.15,2013-05-29 05:55:00,
2013-05-29 02:00:00,72.5,69.4,30.13,West,263,0.0,4.0,90,0.00,,,0.00,Wunderground v.1.15,2013-05-29 06:00:00,
2013-05-29 02:05:00,72.4,69.3,30.13,West,263,0.0,4.0,90,0.00,,,0.00,Wunderground v.1.15,2013-05-29 06:05:00,
2013-05-29 02:10:00,72.3,69.2,30.13,West,263,0.0,4.0,90,0.00,,,0.00,Wunderground v.1.15,2013-05-29 06:10:00,
2013-05-29 02:15:00,72.2,69.1,30.12,West,263,0.0,4.0,90,0.00,,,0.00,Wunderground v.1.15,2013-05-29 06:15:00,
2013-05-29 02:20:00,72.1,69.0,30.12,West,263,0.0,4.0,90,0.00,,,0.00,Wunderground v.1.15,2013-05-29 06:20:00,
2013-05-29 02:30:00,71.8,68.7,30.12,West,263,0.0,4.0,90,0.00,,,0.00,Wunderground v.1.15,2013-05-29 06:30:00,
2013-05-29 02:35:00,71.7,68.6,30.12,West,263,0.0,4.0,90,0.00,,,0.00,Wunderground v.1.15,2013-05-29 06:35:00,
2013-05-29 02:40:00,71.7,68.6,30.12,West,263,0.0,4.0,90,0.00,,,0.00,Wunderground v.1.15,2013-05-29 06:40:00,
2013-05-29 02:45:00,71.8,68.7,30.12,West,263,0.0,4.0,90,0.00,,,0.00,Wunderground v.1.15,2013-05-29 06:45:00,
2013-05-29 02:50:00,71.9,69.1,30.12,West,263,0.0,4.0,91,0.00,,,0.00,Wunderground v.1.15,2013-05-29 06:50:00,
2013-05-29 03:00:00,71.9,69.1,30.12,West,263,0.0,4.0,91,0.00,,,0.00,Wunderground v.1.15,2013-05-29 07:00:00,
2013-05-29 03:10:00,71.7,68.9,30.11,West,263,0.0,4.0,91,0.00,,,0.00,Wunderground v.1.15,2013-05-29 07:10:00,
2013-05-29 03:15:00,71.6,68.8,30.11,West,263,0.0,4.0,91,0.00,,,0.00,Wunderground v.1.15,2013-05-29 07:15:00,
2013-05-29 03:20:00,71.5,68.7,30.11,West,263,0.0,4.0,91,0.00,,,0.00,Wunderground v.1.15,2013-05-29 07:20:00,
2013-05-29 03:25:00,71.4,68.6,30.12,West,263,0.0,4.0,91,0.00,,,0.00,Wunderground v.1.15,2013-05-29 07:25:00,
2013-05-29 03:30:00,71.3,68.9,30.11,West,263,0.0,4.0,92,0.00,,,0.00,Wunderground v.1.15,2013-05-29 07:30:00,
2013-05-29 03:35:00,71.2,68.4,30.11,West,263,0.0,4.0,91,0.00,,,0.00,Wunderground v.1.15,2013-05-29 07:35:00,
2013-05-29 03:40:00,71.0,68.2,30.11,West,263,0.0,4.0,91,0.00,,,0.00,Wunderground v.1.15,2013-05-29 07:40:00,
2013-05-29 03:45:00,70.9,68.1,30.11,West,263,0.0,4.0,91,0.00,,,0.00,Wunderground v.1.15,2013-05-29 07:45:00,
2013-05-29 03:50:00,70.8,68.4,30.11,West,263,0.0,4.0,92,0.00,,,0.00,Wunderground v.1.15,2013-05-29 07:50:00,
2013-05-29 03:55:00,70.8,68.4,30.11,West,263,0.0,4.0,92,0.00,,,0.00,Wunderground v.1.15,2013-05-29 07:55:00,
2013-05-29 04:00:00,70.7,68.3,30.11,West,263,0.0,4.0,92,0.00,,,0.00,Wunderground v.1.15,2013-05-29 08:00:00,
2013-05-29 04:05:00,70.7,68.3,30.11,West,263,0.0,4.0,92,0.00,,,0.00,Wunderground v.1.15,2013-05-29 08:05:00,
2013-05-29 04:10:00,70.6,68.2,30.11,West,263,0.0,4.0,92,0.00,,,0.00,Wunderground v.1.15,2013-05-29 08:10:00,
2013-05-29 04:15:00,70.5,68.1,30.11,West,263,0.0,4.0,92,0.00,,,0.00,Wunderground v.1.15,2013-05-29 08:15:00,
2013-05-29 04:20:00,70.4,68.0,30.10,West,263,0.0,4.0,92,0.00,,,0.00,Wunderground v.1.15,2013-05-29 08:20:00,
2013-05-29 04:30:00,70.2,67.8,30.10,West,263,0.0,4.0,92,0.00,,,0.00,Wunderground v.1.15,2013-05-29 08:30:00,
2013-05-29 04:35:00,70.1,67.7,30.10,West,263,0.0,4.0,92,0.00,,,0.00,Wunderground v.1.15,2013-05-29 08:35:00,
2013-05-29 04:45:00,70.0,67.9,30.10,West,263,0.0,4.0,93,0.00,,,0.00,Wunderground v.1.15,2013-05-29 08:45:00,
2013-05-29 04:50:00,70.0,67.9,30.10,West,263,0.0,4.0,93,0.00,,,0.00,Wunderground v.1.15,2013-05-29 08:50:00,
2013-05-29 04:55:00,69.9,67.8,30.10,West,263,0.0,4.0,93,0.00,,,0.00,Wunderground v.1.15,2013-05-29 08:55:00,
2013-05-29 05:00:00,69.8,67.7,30.10,West,263,0.0,4.0,93,0.00,,,0.00,Wunderground v.1.15,2013-05-29 09:00:00,
2013-05-29 05:05:00,69.7,67.6,30.10,West,263,0.0,4.0,93,0.00,,,0.00,Wunderground v.1.15,2013-05-29 09:05:00,
2013-05-29 05:10:00,69.6,67.5,30.11,West,263,0.0,4.0,93,0.00,,,0.00,Wunderground v.1.15,2013-05-29 09:10:00,
2013-05-29 05:15:00,69.5,67.4,30.11,West,263,0.0,4.0,93,0.00,,,0.00,Wunderground v.1.15,2013-05-29 09:15:00,
2013-05-29 05:20:00,69.5,67.4,30.11,West,263,0.0,4.0,93,0.00,,,0.00,Wunderground v.1.15,2013-05-29 09:20:00,
2013-05-29 05:25:00,69.5,67.4,30.11,West,263,0.0,4.0,93,0.00,,,0.00,Wunderground v.1.15,2013-05-29 09:25:00,
2013-05-29 05:30:00,69.5,67.7,30.11,West,263,0.0,4.0,94,0.00,,,0.00,Wunderground v.1.15,2013-05-29 09:30:00,
2013-05-29 05:35:00,69.5,67.7,30.11,West,263,0.0,4.0,94,0.00,,,0.00,Wunderground v.1.15,2013-05-29 09:35:00,
2013-05-29 05:40:00,69.6,67.8,30.11,West,263,0.0,4.0,94,0.00,,,0.00,Wunderground v.1.15,2013-05-29 09:40:00,
2013-05-29 05:45:00,69.7,67.9,30.11,West,263,0.0,4.0,94,0.00,,,0.00,Wunderground v.1.15,2013-05-29 09:45:00,
2013-05-29 05:50:00,69.6,67.8,30.11,West,263,0.0,4.0,94,0.00,,,0.00,Wunderground v.1.15,2013-05-29 09:50:00,
2013-05-29 05:55:00,69.7,67.9,30.11,West,263,0.0,4.0,94,0.00,,,0.00,Wunderground v.1.15,2013-05-29 09:55:00,
2013-05-29 06:00:00,69.7,67.9,30.11,West,263,0.0,4.0,94,0.00,,,0.00,Wunderground v.1.15,2013-05-29 10:00:00,
2013-05-29 06:05:00,69.7,67.9,30.12,West,263,0.0,4.0,94,0.00,,,0.00,Wunderground v.1.15,2013-05-29 10:05:00,
2013-05-29 06:10:00,69.7,67.9,30.12,West,263,0.0,4.0,94,0.00,,,0.00,Wunderground v.1.15,2013-05-29 10:10:00,
2013-05-29 06:20:00,69.6,67.8,30.11,South,190,0.0,4.0,94,0.00,,,0.00,Wunderground v.1.15,2013-05-29 10:20:00,
2013-05-29 06:25:00,69.6,67.8,30.12,SSE,162,0.0,4.0,94,0.00,,,0.00,Wunderground v.1.15,2013-05-29 10:25:00,
2013-05-29 06:30:00,69.5,67.7,30.12,SSE,162,0.0,4.0,94,0.00,,,0.00,Wunderground v.1.15,2013-05-29 10:30:00,
2013-05-29 06:40:00,69.5,67.7,30.12,SSE,162,0.0,4.0,94,0.00,,,0.00,Wunderground v.1.15,2013-05-29 10:40:00,
2013-05-29 06:45:00,69.6,68.1,30.12,SSE,162,0.0,4.0,95,0.00,,,0.00,Wunderground v.1.15,2013-05-29 10:45:00,
2013-05-29 06:55:00,69.9,68.4,30.13,SSE,162,0.0,4.0,95,0.00,,,0.00,Wunderground v.1.15,2013-05-29 10:55:00,
2013-05-29 07:00:00,70.1,68.6,30.13,SSE,162,0.0,0.0,95,0.00,,,0.00,Wunderground v.1.15,2013-05-29 11:00:00,
2013-05-29 08:45:00,75.2,73.7,30.16,West,278,1.0,1.0,95,0.00,,,0.00,Wunderground v.1.15,2013-05-29 12:45:00,
2013-05-29 08:55:00,75.6,73.8,30.16,NW,321,1.0,1.0,94,0.00,,,0.00,Wunderground v.1.15,2013-05-29 12:55:00,
2013-05-29 09:00:00,75.9,74.0,30.16,WNW,289,2.0,2.0,94,0.00,,,0.00,Wunderground v.1.15,2013-05-29 13:00:00,
2013-05-29 09:05:00,76.4,74.2,30.16,West,281,2.0,3.0,93,0.00,,,0.00,Wunderground v.1.15,2013-05-29 13:05:00,
2013-05-29 09:10:00,76.8,74.3,30.17,WSW,249,2.0,2.0,92,0.00,,,0.00,Wunderground v.1.15,2013-05-29 13:10:00,
2013-05-29 09:15:00,77.3,74.5,30.16,WSW,243,1.0,2.0,91,0.00,,,0.00,Wunderground v.1.15,2013-05-29 13:15:00,
2013-05-29 09:20:00,77.7,74.2,30.16,North,360,1.0,3.0,89,0.00,,,0.00,Wunderground v.1.15,2013-05-29 13:20:00,
2013-05-29 09:30:00,78.2,73.7,30.16,West,266,2.0,2.0,86,0.00,,,0.00,Wunderground v.1.15,2013-05-29 13:30:00,
2013-05-29 09:35:00,78.4,73.5,30.16,West,268,1.0,6.0,85,0.00,,,0.00,Wunderground v.1.15,2013-05-29 13:35:00,
2013-05-29 09:40:00,78.9,73.3,30.16,SSW,204,2.0,6.0,83,0.00,,,0.00,Wunderground v.1.15,2013-05-29 13:40:00,
2013-05-29 09:45:00,79.3,73.3,30.16,NW,316,3.0,6.0,82,0.00,,,0.00,Wunderground v.1.15,2013-05-29 13:45:00,
2013-05-29 09:50:00,79.5,73.2,30.16,WSW,257,2.0,6.0,81,0.00,,,0.00,Wunderground v.1.15,2013-05-29 13:50:00,
2013-05-29 09:55:00,79.6,73.3,30.16,WNW,295,2.0,6.0,81,0.00,,,0.00,Wunderground v.1.15,2013-05-29 13:55:00,
2013-05-29 10:00:00,80.1,74.1,30.16,West,279,2.0,2.0,82,0.00,,,0.00,Wunderground v.1.15,2013-05-29 14:00:00,
2013-05-29 10:05:00,80.6,73.9,30.16,NW,309,2.0,4.0,80,0.00,,,0.00,Wunderground v.1.15,2013-05-29 14:05:00,
2013-05-29 10:15:00,81.6,73.7,30.16,NW,314,4.0,6.0,77,0.00,,,0.00,Wunderground v.1.15,2013-05-29 14:15:00,
2013-05-29 10:20:00,82.2,73.9,30.17,West,268,4.0,6.0,76,0.00,,,0.00,Wunderground v.1.15,2013-05-29 14:20:00,
2013-05-29 10:25:00,82.7,74.0,30.16,WNW,283,4.0,6.0,75,0.00,,,0.00,Wunderground v.1.15,2013-05-29 14:25:00,
2013-05-29 10:30:00,83.2,73.6,30.16,WNW,283,4.0,4.0,73,0.00,,,0.00,Wunderground v.1.15,2013-05-29 14:30:00,
2013-05-29 10:35:00,83.8,73.8,30.16,NE,41,4.0,6.0,72,0.00,,,0.00,Wunderground v.1.15,2013-05-29 14:35:00,
2013-05-29 10:40:00,84.5,74.5,30.16,WNW,298,3.0,6.0,72,0.00,,,0.00,Wunderground v.1.15,2013-05-29 14:40:00,
2013-05-29 10:45:00,84.6,73.3,30.16,NW,307,3.0,6.0,69,0.00,,,0.00,Wunderground v.1.15,2013-05-29 14:45:00,
2013-05-29 10:55:00,85.0,74.1,30.16,South,170,1.0,6.0,70,0.00,,,0.00,Wunderground v.1.15,2013-05-29 14:55:00,
2013-05-29 11:00:00,85.3,73.5,30.16,NW,322,2.0,7.0,68,0.00,,,0.00,Wunderground v.1.15,2013-05-29 15:00:00,
2013-05-29 11:05:00,85.6,72.9,30.16,WNW,299,3.0,7.0,66,0.00,,,0.00,Wunderground v.1.15,2013-05-29 15:05:00,
2013-05-29 11:10:00,86.2,73.5,30.16,WSW,256,4.0,6.0,66,0.00,,,0.00,Wunderground v.1.15,2013-05-29 15:10:00,
2013-05-29 11:20:00,86.1,72.5,30.16,WNW,289,4.0,4.0,64,0.00,,,0.00,Wunderground v.1.15,2013-05-29 15:20:00,
2013-05-29 11:25:00,85.6,72.9,30.16,WNW,297,3.0,6.0,66,0.00,,,0.00,Wunderground v.1.15,2013-05-29 15:25:00,
2013-05-29 11:30:00,84.9,73.6,30.16,West,281,3.0,3.0,69,0.00,,,0.00,Wunderground v.1.15,2013-05-29 15:30:00,
2013-05-29 11:35:00,84.6,75.0,30.16,WNW,292,2.0,4.0,73,0.00,,,0.00,Wunderground v.1.15,2013-05-29 15:35:00,
2013-05-29 11:40:00,84.1,74.5,30.16,WNW,299,2.0,2.0,73,0.00,,,0.00,Wunderground v.1.15,2013-05-29 15:40:00,
2013-05-29 11:45:00,83.8,74.6,30.16,West,278,2.0,6.0,74,0.00,,,0.00,Wunderground v.1.15,2013-05-29 15:45:00,
2013-05-29 11:50:00,83.3,73.7,30.17,West,276,3.0,7.0,73,0.00,,,0.00,Wunderground v.1.15,2013-05-29 15:50:00,
2013-05-29 11:55:00,82.7,74.0,30.17,WSW,241,4.0,7.0,75,0.00,,,0.01,Wunderground v.1.15,2013-05-29 15:55:00,
2013-05-29 12:00:00,82.5,74.9,30.17,NNW,345,4.0,6.0,78,0.00,,,0.01,Wunderground v.1.15,2013-05-29 16:00:00,
2013-05-29 12:05:00,82.8,75.2,30.16,NW,320,4.0,7.0,78,0.00,,,0.01,Wunderground v.1.15,2013-05-29 16:05:00,
2013-05-29 12:10:00,83.0,75.4,30.16,WNW,294,3.0,6.0,78,0.00,,,0.01,Wunderground v.1.15,2013-05-29 16:10:00,
2013-05-29 12:15:00,83.4,75.0,30.16,NNW,342,4.0,6.0,76,0.00,,,0.01,Wunderground v.1.15,2013-05-29 16:15:00,
2013-05-29 12:20:00,83.9,74.7,30.17,NW,314,5.0,6.0,74,0.00,,,0.01,Wunderground v.1.15,2013-05-29 16:20:00,
2013-05-29 12:25:00,84.5,73.6,30.17,NW,314,5.0,6.0,70,0.00,,,0.01,Wunderground v.1.15,2013-05-29 16:25:00,
2013-05-29 12:30:00,85.3,73.5,30.16,NW,314,5.0,5.0,68,0.00,,,0.01,Wunderground v.1.15,2013-05-29 16:30:00,
2013-05-29 12:35:00,85.8,73.6,30.16,NNW,346,5.0,6.0,67,0.00,,,0.01,Wunderground v.1.15,2013-05-29 16:35:00,
2013-05-29 12:45:00,86.9,73.7,30.16,NW,315,4.0,6.0,65,0.00,,,0.01,Wunderground v.1.15,2013-05-29 16:45:00,
2013-05-29 12:50:00,87.1,72.0,30.16,WSW,251,4.0,6.0,61,0.00,,,0.01,Wunderground v.1.15,2013-05-29 16:50:00,
2013-05-29 13:00:00,87.4,72.3,30.16,NE,47,4.0,4.0,61,0.00,,,0.01,Wunderground v.1.15,2013-05-29 17:00:00,
2013-05-29 13:10:00,87.7,73.1,30.15,SW,227,3.0,3.0,62,0.00,,,0.01,Wunderground v.1.15,2013-05-29 17:10:00,
2013-05-29 13:15:00,88.2,73.5,30.15,WNW,293,2.0,6.0,62,0.00,,,0.01,Wunderground v.1.15,2013-05-29 17:15:00,
2013-05-29 13:20:00,88.8,73.6,30.16,NW,318,2.0,6.0,61,0.00,,,0.01,Wunderground v.1.15,2013-05-29 17:20:00,
2013-05-29 13:25:00,88.4,72.7,30.16,North,358,3.0,6.0,60,0.00,,,0.01,Wunderground v.1.15,2013-05-29 17:25:00,
2013-05-29 13:30:00,86.7,73.5,30.17,West,264,5.0,5.0,65,1.35,,,0.06,Wunderground v.1.15,2013-05-29 17:30:00,
2013-05-29 13:35:00,84.7,72.1,30.16,WNW,302,5.0,6.0,66,0.14,,,0.08,Wunderground v.1.15,2013-05-29 17:35:00,
2013-05-29 13:40:00,83.6,72.8,30.15,NW,317,2.0,2.0,70,0.13,,,0.09,Wunderground v.1.15,2013-05-29 17:40:00,
2013-05-29 13:45:00,83.2,73.6,30.15,NW,316,0.0,6.0,73,0.06,,,0.09,Wunderground v.1.15,2013-05-29 17:45:00,
2013-05-29 13:50:00,82.9,74.9,30.15,West,267,0.0,6.0,77,0.04,,,0.09,Wunderground v.1.15,2013-05-29 17:50:00,
2013-05-29 14:00:00,82.8,76.0,30.16,NW,314,1.0,6.0,80,0.00,,,0.09,Wunderground v.1.15,2013-05-29 18:00:00,
2013-05-29 14:05:00,82.4,75.6,30.16,NW,325,3.0,6.0,80,0.00,,,0.09,Wunderground v.1.15,2013-05-29 18:05:00,
2013-05-29 14:15:00,81.6,74.1,30.16,ENE,60,4.0,4.0,78,0.00,,,0.09,Wunderground v.1.15,2013-05-29 18:15:00,
2013-05-29 14:20:00,81.5,73.6,30.15,WNW,297,4.0,6.0,77,0.00,,,0.09,Wunderground v.1.15,2013-05-29 18:20:00,
2013-05-29 14:25:00,81.3,73.4,30.15,NNW,339,4.0,6.0,77,0.00,,,0.09,Wunderground v.1.15,2013-05-29 18:25:00,
2013-05-29 14:30:00,81.4,73.9,30.15,NNW,337,4.0,7.0,78,0.00,,,0.09,Wunderground v.1.15,2013-05-29 18:30:00,
2013-05-29 14:35:00,81.5,74.0,30.15,North,4,3.0,7.0,78,0.00,,,0.09,Wunderground v.1.15,2013-05-29 18:35:00,
2013-05-29 14:40:00,81.7,74.2,30.14,NW,321,2.0,2.0,78,0.00,,,0.09,Wunderground v.1.15,2013-05-29 18:40:00,
2013-05-29 14:45:00,82.1,74.2,30.14,West,274,2.0,4.0,77,0.00,,,0.09,Wunderground v.1.15,2013-05-29 18:45:00,
2013-05-29 14:55:00,83.5,74.7,30.14,NNW,335,3.0,7.0,75,0.00,,,0.09,Wunderground v.1.15,2013-05-29 18:55:00,
2013-05-29 15:00:00,83.8,73.4,30.14,West,266,3.0,7.0,71,0.00,,,0.09,Wunderground v.1.15,2013-05-29 19:00:00,
2013-05-29 15:05:00,84.0,73.2,30.13,NNW,331,4.0,10.0,70,0.00,,,0.09,Wunderground v.1.15,2013-05-29 19:05:00,
2013-05-29 15:10:00,84.7,74.7,30.13,WNW,283,4.0,6.0,72,0.00,,,0.09,Wunderground v.1.15,2013-05-29 19:10:00,
2013-05-29 15:20:00,85.4,73.2,30.13,WSW,248,4.0,4.0,67,0.00,,,0.09,Wunderground v.1.15,2013-05-29 19:20:00,
2013-05-29 15:25:00,85.5,73.7,30.13,WNW,285,4.0,6.0,68,0.00,,,0.09,Wunderground v.1.15,2013-05-29 19:25:00,
2013-05-29 15:30:00,85.9,73.7,30.13,North,3,2.0,2.0,67,0.00,,,0.09,Wunderground v.1.15,2013-05-29 19:30:00,
2013-05-29 15:35:00,86.3,73.6,30.13,North,10,3.0,8.0,66,0.00,,,0.09,Wunderground v.1.15,2013-05-29 19:35:00,
2013-05-29 15:40:00,86.4,73.7,30.13,NNW,337,5.0,5.0,66,0.00,,,0.09,Wunderground v.1.15,2013-05-29 19:40:00,
2013-05-29 15:45:00,86.5,73.3,30.13,WNW,299,5.0,6.0,65,0.00,,,0.09,Wunderground v.1.15,2013-05-29 19:45:00,
2013-05-29 15:50:00,86.4,73.2,30.13,West,266,4.0,4.0,65,0.00,,,0.09,Wunderground v.1.15,2013-05-29 19:50:00,
2013-05-29 15:55:00,86.3,72.7,30.12,WSW,237,3.0,6.0,64,0.00,,,0.09,Wunderground v.1.15,2013-05-29 19:55:00,
2013-05-29 16:05:00,86.4,73.7,30.12,NW,322,3.0,6.0,66,0.00,,,0.09,Wunderground v.1.15,2013-05-29 20:05:00,
2013-05-29 16:10:00,86.8,74.1,30.12,West,265,2.0,6.0,66,0.00,,,0.09,Wunderground v.1.15,2013-05-29 20:10:00,
2013-05-29 16:15:00,86.8,72.2,30.11,WNW,295,2.0,6.0,62,0.00,,,0.09,Wunderground v.1.15,2013-05-29 20:15:00,
2013-05-29 16:20:00,86.8,72.2,30.11,NW,306,3.0,3.0,62,0.00,,,0.09,Wunderground v.1.15,2013-05-29 20:20:00,
2013-05-29 16:25:00,87.1,72.5,30.11,WNW,301,2.0,5.0,62,0.00,,,0.09,Wunderground v.1.15,2013-05-29 20:25:00,
2013-05-29 16:30:00,87.1,72.0,30.11,NNW,331,2.0,2.0,61,0.00,,,0.09,Wunderground v.1.15,2013-05-29 20:30:00,
2013-05-29 16:35:00,87.1,72.0,30.11,West,262,2.0,6.0,61,0.00,,,0.09,Wunderground v.1.15,2013-05-29 20:35:00,
2013-05-29 16:40:00,87.2,71.6,30.10,NW,312,3.0,6.0,60,0.00,,,0.09,Wunderground v.1.15,2013-05-29 20:40:00,
2013-05-29 16:45:00,87.2,72.1,30.10,West,275,5.0,6.0,61,0.00,,,0.09,Wunderground v.1.15,2013-05-29 20:45:00,
2013-05-29 16:55:00,87.2,72.1,30.11,SW,229,4.0,9.0,61,0.00,,,0.09,Wunderground v.1.15,2013-05-29 20:55:00,
2013-05-29 17:00:00,87.3,72.7,30.10,WNW,303,3.0,3.0,62,0.00,,,0.09,Wunderground v.1.15,2013-05-29 21:00:00,
2013-05-29 17:05:00,87.7,73.1,30.11,SW,222,1.0,6.0,62,0.00,,,0.09,Wunderground v.1.15,2013-05-29 21:05:00,
2013-05-29 17:15:00,87.8,72.2,30.10,WNW,284,2.0,6.0,60,0.00,,,0.09,Wunderground v.1.15,2013-05-29 21:15:00,
2013-05-29 17:25:00,87.7,73.5,30.10,WSW,247,3.0,6.0,63,0.00,,,0.09,Wunderground v.1.15,2013-05-29 21:25:00,
2013-05-29 17:30:00,87.0,73.8,30.11,West,259,3.0,3.0,65,0.00,,,0.09,Wunderground v.1.15,2013-05-29 21:30:00,
2013-05-29 17:40:00,85.4,74.1,30.11,WNW,303,1.0,7.0,69,0.00,,,0.09,Wunderground v.1.15,2013-05-29 21:40:00,
2013-05-29 17:50:00,82.2,72.3,30.12,NW,308,5.0,5.0,72,1.45,,,0.32,Wunderground v.1.15,2013-05-29 21:50:00,
2013-05-29 18:00:00,80.0,72.5,30.11,WNW,297,1.0,1.0,78,0.13,,,0.36,Wunderground v.1.15,2013-05-29 22:00:00,
2013-05-29 18:05:00,79.5,72.8,30.11,WNW,297,0.0,6.0,80,0.11,,,0.37,Wunderground v.1.15,2013-05-29 22:05:00,
2013-05-29 18:10:00,79.1,72.8,30.11,WNW,296,0.0,6.0,81,0.07,,,0.37,Wunderground v.1.15,2013-05-29 22:10:00,
2013-05-29 18:20:00,78.6,73.4,30.12,SE,129,0.0,6.0,84,0.00,,,0.37,Wunderground v.1.15,2013-05-29 22:20:00,
2013-05-29 18:25:00,78.4,73.5,30.11,SE,129,0.0,6.0,85,0.00,,,0.37,Wunderground v.1.15,2013-05-29 22:25:00,
2013-05-29 18:30:00,78.3,73.8,30.12,NNE,25,0.0,6.0,86,0.00,,,0.37,Wunderground v.1.15,2013-05-29 22:30:00,
2013-05-29 18:35:00,78.1,73.6,30.12,WNW,303,0.0,6.0,86,0.00,,,0.37,Wunderground v.1.15,2013-05-29 22:35:00,
2013-05-29 18:40:00,77.9,73.7,30.12,WNW,301,1.0,1.0,87,0.00,,,0.37,Wunderground v.1.15,2013-05-29 22:40:00,
2013-05-29 18:45:00,77.8,73.6,30.11,WNW,301,0.0,6.0,87,0.00,,,0.37,Wunderground v.1.15,2013-05-29 22:45:00,
2013-05-29 18:50:00,77.6,73.8,30.12,WSW,244,0.0,6.0,88,0.00,,,0.37,Wunderground v.1.15,2013-05-29 22:50:00,
2013-05-29 18:55:00,77.3,73.5,30.12,West,268,0.0,6.0,88,0.00,,,0.37,Wunderground v.1.15,2013-05-29 22:55:00,
2013-05-29 19:00:00,77.1,73.3,30.11,WSW,247,0.0,6.0,88,0.00,,,0.37,Wunderground v.1.15,2013-05-29 23:00:00,
2013-05-29 19:05:00,76.9,73.1,30.11,West,272,0.0,6.0,88,0.00,,,0.37,Wunderground v.1.15,2013-05-29 23:05:00,
2013-05-29 19:10:00,76.7,72.9,30.12,West,278,0.0,6.0,88,0.00,,,0.37,Wunderground v.1.15,2013-05-29 23:10:00,
2013-05-29 19:15:00,76.6,73.1,30.12,West,278,0.0,6.0,89,0.00,,,0.37,Wunderground v.1.15,2013-05-29 23:15:00,
2013-05-29 19:20:00,76.6,73.1,30.12,West,278,0.0,6.0,89,0.00,,,0.37,Wunderground v.1.15,2013-05-29 23:20:00,
2013-05-29 19:25:00,76.5,73.0,30.12,WSW,258,0.0,6.0,89,0.00,,,0.37,Wunderground v.1.15,2013-05-29 23:25:00,
2013-05-29 19:30:00,76.5,73.0,30.12,WSW,258,0.0,6.0,89,0.00,,,0.37,Wunderground v.1.15,2013-05-29 23:30:00,
2013-05-29 19:40:00,76.6,73.1,30.12,WSW,258,0.0,6.0,89,0.00,,,0.37,Wunderground v.1.15,2013-05-29 23:40:00,
2013-05-29 19:45:00,76.4,72.9,30.11,West,277,1.0,6.0,89,0.00,,,0.37,Wunderground v.1.15,2013-05-29 23:45:00,
2013-05-29 19:50:00,76.2,72.7,30.11,WSW,244,1.0,1.0,89,0.00,,,0.37,Wunderground v.1.15,2013-05-29 23:50:00,
2013-05-29 19:55:00,76.0,72.5,30.12,SW,222,1.0,6.0,89,0.00,,,0.37,Wunderground v.1.15,2013-05-29 23:55:00,
2013-05-29 20:00:00,75.9,72.4,30.12,SW,223,0.0,6.0,89,0.00,,,0.37,Wunderground v.1.15,2013-05-30 00:00:00,
2013-05-29 20:05:00,75.9,72.4,30.12,SW,224,0.0,6.0,89,0.00,,,0.37,Wunderground v.1.15,2013-05-30 00:05:00,
2013-05-29 20:10:00,75.9,72.4,30.12,SW,234,0.0,6.0,89,0.00,,,0.37,Wunderground v.1.15,2013-05-30 00:10:00,
2013-05-29 20:15:00,75.8,72.3,30.12,WSW,256,1.0,6.0,89,0.00,,,0.37,Wunderground v.1.15,2013-05-30 00:15:00,
2013-05-29 20:20:00,75.7,72.2,30.12,WNW,291,1.0,6.0,89,0.00,,,0.37,Wunderground v.1.15,2013-05-30 00:20:00,
2013-05-29 20:25:00,75.7,72.2,30.12,West,272,1.0,6.0,89,0.00,,,0.37,Wunderground v.1.15,2013-05-30 00:25:00,
2013-05-29 20:30:00,75.6,72.1,30.12,NW,305,1.0,1.0,89,0.00,,,0.37,Wunderground v.1.15,2013-05-30 00:30:00,
2013-05-29 20:35:00,75.5,72.0,30.12,WSW,239,0.0,6.0,89,0.00,,,0.37,Wunderground v.1.15,2013-05-30 00:35:00,
2013-05-29 20:40:00,75.5,71.7,30.12,SW,235,0.0,6.0,88,0.00,,,0.37,Wunderground v.1.15,2013-05-30 00:40:00,
2013-05-29 20:45:00,75.4,71.6,30.12,WNW,282,0.0,6.0,88,0.00,,,0.37,Wunderground v.1.15,2013-05-30 00:45:00,
2013-05-29 20:50:00,75.3,71.5,30.12,West,262,1.0,1.0,88,0.00,,,0.37,Wunderground v.1.15,2013-05-30 00:50:00,
2013-05-29 20:55:00,75.2,71.4,30.12,WSW,258,1.0,6.0,88,0.00,,,0.37,Wunderground v.1.15,2013-05-30 00:55:00,
2013-05-29 21:00:00,75.1,71.3,30.12,West,263,0.0,6.0,88,0.00,,,0.37,Wunderground v.1.15,2013-05-30 01:00:00,
2013-05-29 21:05:00,75.1,71.6,30.12,West,279,0.0,6.0,89,0.00,,,0.37,Wunderground v.1.15,2013-05-30 01:05:00,
2013-05-29 21:10:00,75.1,71.6,30.12,SW,236,0.0,6.0,89,0.00,,,0.37,Wunderground v.1.15,2013-05-30 01:10:00,
2013-05-29 21:15:00,75.0,71.5,30.12,WSW,255,0.0,6.0,89,0.00,,,0.37,Wunderground v.1.15,2013-05-30 01:15:00,
2013-05-29 21:20:00,75.0,71.5,30.12,WSW,252,1.0,6.0,89,0.00,,,0.37,Wunderground v.1.15,2013-05-30 01:20:00,
2013-05-29 21:25:00,75.0,71.5,30.13,WSW,248,2.0,6.0,89,0.00,,,0.37,Wunderground v.1.15,2013-05-30 01:25:00,
2013-05-29 21:30:00,74.9,71.4,30.13,West,280,1.0,1.0,89,0.00,,,0.37,Wunderground v.1.15,2013-05-30 01:30:00,
2013-05-29 21:35:00,74.9,71.4,30.13,West,272,0.0,6.0,89,0.00,,,0.37,Wunderground v.1.15,2013-05-30 01:35:00,
2013-05-29 21:40:00,74.9,71.4,30.13,West,274,0.0,6.0,89,0.00,,,0.37,Wunderground v.1.15,2013-05-30 01:40:00,
2013-05-29 21:45:00,74.9,71.4,30.13,WSW,240,0.0,6.0,89,0.00,,,0.37,Wunderground v.1.15,2013-05-30 01:45:00,
2013-05-29 21:50:00,74.9,71.4,30.14,WSW,239,0.0,6.0,89,0.00,,,0.37,Wunderground v.1.15,2013-05-30 01:50:00,
2013-05-29 22:00:00,74.8,71.3,30.14,WSW,241,0.0,6.0,89,0.00,,,0.37,Wunderground v.1.15,2013-05-30 02:00:00,
2013-05-29 22:05:00,74.7,71.2,30.14,WSW,243,0.0,6.0,89,0.00,,,0.37,Wunderground v.1.15,2013-05-30 02:05:00,
2013-05-29 22:10:00,74.7,71.2,30.15,WSW,252,0.0,6.0,89,0.00,,,0.37,Wunderground v.1.15,2013-05-30 02:10:00,
2013-05-29 22:20:00,74.6,71.1,30.15,West,267,0.0,6.0,89,0.00,,,0.37,Wunderground v.1.15,2013-05-30 02:20:00,
2013-05-29 22:25:00,74.6,71.1,30.15,West,270,0.0,6.0,89,0.00,,,0.37,Wunderground v.1.15,2013-05-30 02:25:00,
2013-05-29 22:30:00,74.5,71.0,30.15,West,270,0.0,6.0,89,0.00,,,0.37,Wunderground v.1.15,2013-05-30 02:30:00,
2013-05-29 22:35:00,74.5,71.4,30.16,West,270,0.0,6.0,90,0.00,,,0.37,Wunderground v.1.15,2013-05-30 02:35:00,
2013-05-29 22:40:00,74.4,71.3,30.16,West,268,0.0,6.0,90,0.00,,,0.37,Wunderground v.1.15,2013-05-30 02:40:00,
2013-05-29 22:45:00,74.4,71.3,30.15,WNW,284,0.0,6.0,90,0.00,,,0.37,Wunderground v.1.15,2013-05-30 02:45:00,
2013-05-29 22:50:00,74.3,71.2,30.16,West,275,1.0,1.0,90,0.00,,,0.37,Wunderground v.1.15,2013-05-30 02:50:00,
2013-05-29 23:00:00,74.3,71.2,30.15,SW,232,0.0,6.0,90,0.00,,,0.37,Wunderground v.1.15,2013-05-30 03:00:00,
2013-05-29 23:05:00,74.3,71.2,30.15,WSW,238,0.0,6.0,90,0.00,,,0.37,Wunderground v.1.15,2013-05-30 03:05:00,
2013-05-29 23:10:00,74.2,71.4,30.15,West,259,0.0,6.0,91,0.00,,,0.37,Wunderground v.1.15,2013-05-30 03:10:00,
2013-05-29 23:20:00,74.2,71.4,30.16,SW,228,1.0,1.0,91,0.00,,,0.37,Wunderground v.1.15,2013-05-30 03:20:00,
2013-05-29 23:25:00,74.2,71.4,30.16,WSW,247,0.0,6.0,91,0.00,,,0.37,Wunderground v.1.15,2013-05-30 03:25:00,
2013-05-29 23:35:00,74.1,71.3,30.15,WSW,242,0.0,6.0,91,0.00,,,0.37,Wunderground v.1.15,2013-05-30 03:35:00,
2013-05-29 23:40:00,74.0,71.2,30.15,West,260,0.0,6.0,91,0.00,,,0.37,Wunderground v.1.15,2013-05-30 03:40:00,
2013-05-29 23:50:00,74.0,71.2,30.14,SSW,198,0.0,6.0,91,0.00,,,0.37,Wunderground v.1.15,2013-05-30 03:50:00,
2013-05-29 23:55:00,73.9,71.1,30.14,West,265,0.0,6.0,91,0.00,,,0.37,Wunderground v.1.15,2013-05-30 03:55:00,